Terminal Aerodrome Forecast
Issued by NWS

Home | Current Version | Previous Version | Text Only | Print | Product List | Glossary On
Versions: 1 2 3 4 5 6 7 8 9 10 11 12 13 14 15 16 17 18 19
783
FTUS41 KBGM 250853 AAA
TAFITH
TAF AMD
KITH 250853Z 2509/2606 14009G16KT P6SM FEW025 OVC080
      TEMPO 2510/2514 -SHRA OVC025
     FM251400 12012KT 4SM -RA BR SCT015 OVC025
     FM251800 13010KT P6SM OVC015
     FM260300 VRB03KT 5SM -SHRA BR OVC008=

USA.gov is the U.S. government's official web portal to all federal, state and local government web resources and services.